createdAt,value
2023-01-20T00:01:29.882Z,8.48
2023-01-20T00:06:32.134Z,9.20
2023-01-20T00:11:34.108Z,8.73
2023-01-20T00:16:36.317Z,8.32
2023-01-20T00:21:38.158Z,8.88
2023-01-20T00:26:40.051Z,8.27
2023-01-20T00:31:42.102Z,9.52
2023-01-20T00:36:44.107Z,9.55
2023-01-20T00:41:45.916Z,9.57
2023-01-20T00:46:47.771Z,8.18
2023-01-20T00:51:49.780Z,10.65
2023-01-20T00:56:51.609Z,10.73
2023-01-20T01:01:53.700Z,9.85
2023-01-20T01:06:55.761Z,10.02
2023-01-20T01:11:57.583Z,10.30
2023-01-20T01:16:59.449Z,10.68
2023-01-20T01:22:01.249Z,10.73
2023-01-20T01:27:04.570Z,10.32
2023-01-20T01:32:07.366Z,10.38
2023-01-20T01:37:09.206Z,10.77
2023-01-20T01:42:16.413Z,10.00
2023-01-20T01:47:18.414Z,11.23
2023-01-20T01:52:21.546Z,10.90
2023-01-20T01:57:23.513Z,10.00
2023-01-20T02:02:25.602Z,11.13
2023-01-20T02:07:27.735Z,10.10
2023-01-20T02:12:29.983Z,10.90
2023-01-20T02:18:27.023Z,10.38
2023-01-20T02:23:37.950Z,11.27
2023-01-20T02:29:12.164Z,10.10
2023-01-20T02:34:35.345Z,10.43
2023-01-20T02:39:49.510Z,10.60
2023-01-20T02:45:06.553Z,11.23
2023-01-20T02:50:14.510Z,11.65
2023-01-20T02:55:29.031Z,10.82
2023-01-20T03:00:41.448Z,11.00
2023-01-20T03:05:49.171Z,12.07
2023-01-20T03:10:54.689Z,11.70
2023-01-20T03:15:56.469Z,11.20
2023-01-20T03:20:59.786Z,9.95
2023-01-20T03:26:08.756Z,10.15
2023-01-20T03:31:20.319Z,10.90
2023-01-20T03:36:25.337Z,10.07
2023-01-20T03:41:38.382Z,10.95
2023-01-20T03:46:52.093Z,10.55
2023-01-20T03:52:00.108Z,11.45
2023-01-20T03:57:08.469Z,10.52
2023-01-20T04:02:11.878Z,9.25
2023-01-20T04:07:20.614Z,11.35
2023-01-20T04:12:22.668Z,10.57
2023-01-20T04:17:29.455Z,12.18
2023-01-20T04:22:34.257Z,11.05
2023-01-20T04:27:36.111Z,10.88
2023-01-20T04:32:38.218Z,12.60
2023-01-20T04:37:40.229Z,11.57
2023-01-20T04:42:42.124Z,11.50
2023-01-20T04:47:44.652Z,11.63
2023-01-20T04:52:46.568Z,12.20
2023-01-20T04:57:48.556Z,11.07
2023-01-20T05:02:50.589Z,11.00
2023-01-20T05:07:53.466Z,11.27
2023-01-20T05:12:55.319Z,11.68
2023-01-20T05:17:57.157Z,12.27
2023-01-20T05:23:01.286Z,12.25
2023-01-20T05:28:03.575Z,11.85
2023-01-20T05:33:05.406Z,12.82
2023-01-20T05:38:07.283Z,11.80
2023-01-20T05:43:09.117Z,12.15
2023-01-20T05:48:10.974Z,12.10
2023-01-20T05:53:12.804Z,13.55
2023-01-20T05:58:14.952Z,13.27
2023-01-20T06:03:16.797Z,14.48
2023-01-20T06:08:18.691Z,13.18
2023-01-20T06:13:20.690Z,14.25
2023-01-20T06:18:23.992Z,14.63
2023-01-20T06:23:26.830Z,15.50
2023-01-20T06:28:29.144Z,14.93
2023-01-20T06:33:31.902Z,13.82
2023-01-20T06:38:35.849Z,15.70
2023-01-20T06:43:40.337Z,15.65
2023-01-20T06:48:43.368Z,15.52
2023-01-20T06:53:46.187Z,15.02
2023-01-20T06:58:48.123Z,15.05
2023-01-20T07:03:50.315Z,14.68
2023-01-20T07:08:52.270Z,13.63
2023-01-20T07:13:54.150Z,14.80
2023-01-20T07:19:12.264Z,15.35
2023-01-20T07:24:14.191Z,19.80
2023-01-20T07:29:17.851Z,15.68
2023-01-20T07:34:19.848Z,16.27
2023-01-20T07:39:21.737Z,14.60
2023-01-20T07:44:23.589Z,15.55
2023-01-20T07:49:25.512Z,14.95
2023-01-20T07:54:27.395Z,15.05
2023-01-20T07:59:30.177Z,13.23
2023-01-20T08:04:33.942Z,15.40
2023-01-20T08:09:35.782Z,22.17
2023-01-20T08:14:37.945Z,17.38
2023-01-20T08:19:39.924Z,15.60
2023-01-20T08:24:42.332Z,15.57
2023-01-20T08:29:44.578Z,14.32
2023-01-20T08:34:46.598Z,15.82
2023-01-20T08:39:50.466Z,14.35
2023-01-20T08:44:53.609Z,13.23
2023-01-20T08:49:55.515Z,15.60
2023-01-20T08:54:59.105Z,14.55
2023-01-20T09:00:01.584Z,14.68
2023-01-20T09:05:05.135Z,13.52
2023-01-20T09:10:07.640Z,14.32
2023-01-20T09:15:10.187Z,13.52
2023-01-20T09:20:12.637Z,17.88
2023-01-20T09:25:15.169Z,15.43
2023-01-20T09:30:17.649Z,14.40
2023-01-20T09:35:19.607Z,14.75
2023-01-20T09:40:50.556Z,16.58
2023-01-20T09:46:00.483Z,16.20
2023-01-20T09:51:25.554Z,16.75
2023-01-20T09:56:31.040Z,17.70
2023-01-20T10:01:35.890Z,15.93
2023-01-20T10:07:03.840Z,16.98
2023-01-20T10:12:06.165Z,15.70
2023-01-20T10:17:21.999Z,16.10
2023-01-20T10:22:41.343Z,15.63
2023-01-20T10:27:52.770Z,16.53
2023-01-20T10:32:59.023Z,17.42
2023-01-20T10:38:01.260Z,17.30
2023-01-20T10:43:12.491Z,15.43
2023-01-20T10:48:20.758Z,17.83
2023-01-20T10:53:37.635Z,16.17
2023-01-20T10:58:45.391Z,17.90
2023-01-20T11:03:49.042Z,16.55
2023-01-20T11:08:51.204Z,16.45
2023-01-20T11:13:53.590Z,16.48
2023-01-20T11:19:04.145Z,15.95
2023-01-20T11:24:36.981Z,15.80
2023-01-20T11:29:43.266Z,15.65
2023-01-20T11:34:49.757Z,17.38
2023-01-20T11:39:54.165Z,16.73
2023-01-20T11:45:15.349Z,16.50
2023-01-20T11:50:28.438Z,15.43
2023-01-20T11:55:30.340Z,15.15
2023-01-20T12:00:40.433Z,18.08
2023-01-20T12:05:48.439Z,16.25
2023-01-20T12:10:51.277Z,18.58
2023-01-20T12:15:56.011Z,17.88
2023-01-20T12:21:17.870Z,21.33
2023-01-20T12:26:22.704Z,18.45
2023-01-20T12:31:24.883Z,18.63
2023-01-20T12:36:48.231Z,18.27
2023-01-20T12:42:11.193Z,17.13
2023-01-20T12:47:29.614Z,16.80
2023-01-20T12:53:04.048Z,18.45
2023-01-20T12:58:22.655Z,19.45
2023-01-20T13:03:43.094Z,18.20
2023-01-20T13:09:00.141Z,18.05
2023-01-20T13:14:07.891Z,18.85
2023-01-20T13:19:15.551Z,18.30
2023-01-20T13:24:29.343Z,18.25
2023-01-20T13:29:40.158Z,18.08
2023-01-20T13:34:42.313Z,21.30
2023-01-20T13:39:48.348Z,19.80
2023-01-20T13:45:13.054Z,19.98
2023-01-20T13:50:35.388Z,18.40
2023-01-20T13:55:46.293Z,20.25
2023-01-20T14:00:50.936Z,17.83
2023-01-20T14:05:55.491Z,19.30
2023-01-20T14:11:19.396Z,20.05
2023-01-20T14:16:36.811Z,20.63
2023-01-20T14:21:41.327Z,20.92
2023-01-20T14:26:43.218Z,18.75
2023-01-20T14:31:46.174Z,21.02
2023-01-20T14:36:48.381Z,19.38
2023-01-20T14:42:01.186Z,20.20
2023-01-20T14:47:03.765Z,19.75
2023-01-20T14:52:07.627Z,19.92
2023-01-20T14:57:20.840Z,19.60
2023-01-20T15:02:30.778Z,16.67
2023-01-20T15:07:32.810Z,20.27
2023-01-20T15:12:46.969Z,19.88
2023-01-20T15:18:23.705Z,20.48
2023-01-20T15:23:36.821Z,22.40
2023-01-20T15:28:43.074Z,17.50
2023-01-20T15:33:45.236Z,20.35
2023-01-20T15:38:47.805Z,21.75
2023-01-20T15:43:51.454Z,26.45
2023-01-20T15:48:53.275Z,18.60
2023-01-20T15:53:55.103Z,19.38
2023-01-20T15:58:58.130Z,16.83
2023-01-20T16:04:00.074Z,19.00
2023-01-20T16:09:04.048Z,19.02
2023-01-20T16:14:05.876Z,19.27
2023-01-20T16:19:09.776Z,20.00
2023-01-20T16:24:12.315Z,18.48
2023-01-20T16:29:14.155Z,19.83
2023-01-20T16:34:15.982Z,20.92
2023-01-20T16:39:17.912Z,20.58
2023-01-20T16:44:19.783Z,18.00
2023-01-20T16:49:22.782Z,17.52
2023-01-20T16:54:24.723Z,17.65
2023-01-20T16:59:26.623Z,19.83
2023-01-20T17:04:29.688Z,19.73
2023-01-20T17:09:31.525Z,21.15
2023-01-20T17:14:33.531Z,20.27
2023-01-20T17:19:35.447Z,19.83
2023-01-20T17:24:39.343Z,18.80
2023-01-20T17:29:41.263Z,18.60
2023-01-20T17:34:43.120Z,18.38
2023-01-20T17:39:46.135Z,18.27
2023-01-20T17:44:48.104Z,18.73
2023-01-20T17:49:49.962Z,19.80
2023-01-20T17:54:52.234Z,19.88
2023-01-20T17:59:54.158Z,19.70
2023-01-20T18:04:55.980Z,17.85
2023-01-20T18:09:57.845Z,20.17
2023-01-20T18:14:59.701Z,20.13
2023-01-20T18:20:01.573Z,17.65
2023-01-20T18:25:03.556Z,18.75
2023-01-20T18:30:05.832Z,17.92
2023-01-20T18:35:08.039Z,15.50
2023-01-20T18:40:11.119Z,16.63
2023-01-20T18:45:12.951Z,14.45
2023-01-20T18:50:16.652Z,14.40
2023-01-20T18:55:18.681Z,12.90
2023-01-20T19:00:20.684Z,14.55
2023-01-20T19:05:22.949Z,16.02
2023-01-20T19:10:25.640Z,13.25
2023-01-20T19:15:28.268Z,13.93
2023-01-20T19:20:30.654Z,14.65
2023-01-20T19:25:32.918Z,13.73
2023-01-20T19:30:38.212Z,13.85
2023-01-20T19:35:42.188Z,12.82
2023-01-20T19:40:46.282Z,12.73
2023-01-20T19:45:49.469Z,13.82
2023-01-20T19:50:51.556Z,13.52
2023-01-20T19:55:53.915Z,13.20
2023-01-20T20:00:56.251Z,13.65
2023-01-20T20:05:58.250Z,14.00
2023-01-20T20:11:00.145Z,16.77
2023-01-20T20:16:03.884Z,14.27
2023-01-20T20:21:06.885Z,15.25
2023-01-20T20:26:12.205Z,12.88
2023-01-20T20:31:14.668Z,16.10
2023-01-20T20:36:16.727Z,15.13
2023-01-20T20:41:18.809Z,15.75
2023-01-20T20:46:20.916Z,14.68
2023-01-20T20:51:26.137Z,15.13
2023-01-20T20:56:32.151Z,14.93
2023-01-20T21:01:35.448Z,14.68
2023-01-20T21:06:37.652Z,18.33
2023-01-20T21:11:42.164Z,18.52
2023-01-20T21:16:44.968Z,14.65
2023-01-20T21:21:46.874Z,15.45
2023-01-20T21:26:48.724Z,15.43
2023-01-20T21:31:50.688Z,14.65
2023-01-20T21:36:52.645Z,13.48
2023-01-20T21:41:54.568Z,13.27
2023-01-20T21:46:57.981Z,13.40
2023-01-20T21:52:18.370Z,14.77
2023-01-20T21:57:21.268Z,15.93
2023-01-20T22:02:23.396Z,15.90
2023-01-20T22:07:25.860Z,15.32
2023-01-20T22:12:29.067Z,17.92
2023-01-20T22:17:31.134Z,17.67
2023-01-20T22:22:32.940Z,16.10
2023-01-20T22:27:34.776Z,17.95
2023-01-20T22:32:36.589Z,17.35
2023-01-20T22:37:38.398Z,17.58
2023-01-20T22:42:40.252Z,16.67
2023-01-20T22:47:42.103Z,14.88
2023-01-20T22:52:43.955Z,16.10
2023-01-20T22:57:45.779Z,14.85
2023-01-20T23:02:47.601Z,16.90
2023-01-20T23:07:49.458Z,17.40
2023-01-20T23:12:51.959Z,14.88
2023-01-20T23:17:53.878Z,16.48
2023-01-20T23:22:55.708Z,15.65
2023-01-20T23:27:57.569Z,13.18
2023-01-20T23:32:59.537Z,12.70
2023-01-20T23:38:01.358Z,11.88
2023-01-20T23:43:03.279Z,11.18
2023-01-20T23:48:05.533Z,10.93
2023-01-20T23:53:07.399Z,10.02
2023-01-20T23:58:09.516Z,10.43
